| Date | Time | Temp. (oF) | Dew Point (oF) | Rel. Hum. (%) | Press. (in.) | Wind Dir. | Wind Speed (mph) | Hourly Rainfall (in.) |
|
|---|---|---|---|---|---|---|---|---|---|
| 1 | 08/25 | 00:00 | 66 | 62 | 87 | 29.95 | NNE | 4 | 0.00 |
| 2 | 08/24 | 23:00 | 66 | 62 | 88 | 29.97 | NNE | 3 | 0.00 |
| 3 | 08/24 | 22:00 | 66 | 62 | 89 | 29.97 | NE | 3 | 0.00 |
| 4 | 08/24 | 21:00 | 67 | 62 | 87 | 29.96 | E | 2 | 0.00 |
| 5 | 08/24 | 20:00 | 68 | 62 | 83 | 29.96 | NE | 6 | 0.00 |
| 6 | 08/24 | 19:00 | 69 | 62 | 79 | 29.95 | NE | 8 | 0.00 |
| 7 | 08/24 | 18:00 | 70 | 62 | 76 | 29.96 | NE | 11 | 0.00 |
| 8 | 08/24 | 17:00 | 72 | 63 | 74 | 29.95 | ENE | 8 | 0.00 |
| 9 | 08/24 | 16:00 | 72 | 63 | 74 | 29.96 | ESE | 5 | 0.00 |
| 10 | 08/24 | 15:00 | 73 | 63 | 73 | 29.97 | NE | 6 | 0.00 |
| 11 | 08/24 | 14:00 | 71 | 63 | 76 | 29.99 | E | 4 | 0.00 |
| 12 | 08/24 | 13:00 | 71 | 62 | 74 | 29.99 | NE | 4 | 0.00 |
| 13 | 08/24 | 12:00 | 71 | 62 | 74 | 30.00 | NE | 8 | 0.00 |
| 14 | 08/24 | 11:00 | 70 | 62 | 76 | 30.01 | ENE | 8 | 0.00 |
| 15 | 08/24 | 10:00 | 68 | 62 | 84 | 30.01 | ENE | 5 | 0.00 |
| 16 | miss | miss | miss | miss | miss | miss | miss | miss | |
| 17 | 08/24 | 06:16 | 62 | 61 | 97 | 29.99 | ESE | 2 | 0.00 |
| 18 | miss | miss | miss | miss | miss | miss | miss | miss | |
| 19 | 08/24 | 06:00 | 62 | 61 | 97 | 29.99 | E | 6 | 0.00 |
| 20 | 08/24 | 05:00 | 62 | 61 | 99 | 29.99 | NE | 5 | 0.00 |
| 21 | 08/24 | 04:00 | 62 | 61 | 99 | 29.99 | NNE | 2 | 0.00 |
| 22 | 08/24 | 03:00 | 63 | 61 | 96 | 30.00 | ENE | 5 | 0.03 |
| 23 | 08/24 | 02:00 | 65 | 61 | 90 | 30.00 | ENE | 3 | 0.00 |
| 24 | 08/24 | 01:00 | 65 | 62 | 92 | 30.01 | E | 6 | 0.00 |